Home   Weather   USA   Paradise   Past weeks
Flag for USA

Past Weather in Paradise, California, USA — Yesterday and Last 2 Weeks

Currently: 86 °F. Broken clouds. (Weather station: Chico Municipal, USA). See more current weather

Past Weather in Paradise — Graph

°F

Paradise Temperature Yesterday

Maximum temperature yesterday: 90 °F (at 3:50 pm)
Minimum temperature yesterday: 64 °F (at 5:35 am)
Average temperature yesterday: 77 °F

High & Low Weather Summary for the Past Weeks

 TemperatureHumidityPressure
High108 °F (Jun 18, 3:47 pm)72% (Jun 10, 6:15 am)30.27 "Hg (Jun 10, 6:15 am)
Low52 °F (Jun 10, 6:15 am)5% (Jun 18, 3:47 pm)29.60 "Hg (Jun 18, 5:55 pm)
Average77 °F34%29.88 "Hg
* Reported Jun 9 2:55 pm — Jun 24 2:55 pm, Paradise. Weather by CustomWeather, © 2021

Note: Actual official high and low records may vary slightly from our data, if they occured in-between our weather recording intervals... More about our weather records

Paradise Weather History for the Previous 24 Hours

Scroll right to see more
 ConditionsComfort  
Time TempWeatherWind HumidityBarometerVisibility
2:55 pm
Thu, Jun 24
86 °FBroken clouds.12 mph33%29.93 "Hg80 mi
1:47 pm84 °FScattered clouds.12 mph35%29.94 "Hg80 mi
12:47 pm82 °FScattered clouds.7 mph37%29.95 "Hg80 mi
11:55 am79 °FScattered clouds.12 mph42%29.98 "Hg80 mi
10:55 am77 °FPassing clouds.12 mph44%29.98 "Hg80 mi
9:47 am73 °FPassing clouds.6 mph50%29.98 "Hg80 mi
8:50 am72 °FPassing clouds.7 mph50%29.98 "Hg100 mi
6:50 am66 °FPassing clouds.10 mph60%29.97 "Hg100 mi
6:15 am66 °FSunny.7 mph60%29.96 "Hg10 mi
5:55 am66 °FSunny.5 mph56%29.96 "Hg10 mi
5:35 am66 °FClear.3 mph60%29.95 "Hg10 mi
5:15 am68 °FClear.No wind60%29.95 "Hg10 mi
4:55 am66 °FClear.3 mph64%29.94 "Hg10 mi
4:35 am66 °FClear.No wind64%29.94 "Hg10 mi
4:15 am68 °FClear.No wind60%29.94 "Hg10 mi
3:55 am68 °FClear.No wind60%29.93 "Hg10 mi
3:35 am70 °FClear.5 mph57%29.92 "Hg10 mi
3:15 am72 °FClear.6 mph50%29.92 "Hg10 mi
2:55 am72 °FClear.8 mph47%29.92 "Hg10 mi
2:35 am72 °FClear.8 mph47%29.92 "Hg10 mi
2:15 am73 °FClear.8 mph41%29.92 "Hg10 mi
1:55 am73 °FClear.8 mph41%29.92 "Hg10 mi
1:35 am75 °FClear.9 mph39%29.91 "Hg10 mi
1:15 am73 °FClear.9 mph41%29.91 "Hg10 mi
12:55 am75 °FClear.7 mph39%29.92 "Hg10 mi
12:35 am77 °FClear.7 mph36%29.91 "Hg10 mi
12:15 am79 °FClear.7 mph34%29.91 "Hg10 mi
11:55 pm
Wed, Jun 23
81 °FClear.7 mph32%29.91 "Hg10 mi
11:35 pm81 °FClear.7 mph34%29.90 "Hg10 mi
11:15 pm81 °FClear.6 mph34%29.90 "Hg10 mi
10:55 pm81 °FClear.7 mph34%29.89 "Hg10 mi
10:35 pm81 °FClear.6 mph37%29.89 "Hg10 mi
10:15 pm81 °FClear.9 mph42%29.88 "Hg10 mi
9:55 pm82 °FClear.7 mph40%29.88 "Hg10 mi
9:35 pm82 °FClear.6 mph37%29.88 "Hg10 mi
9:15 pm84 °FClear.6 mph35%29.87 "Hg10 mi
8:55 pm84 °FClear.6 mph35%29.86 "Hg10 mi
8:35 pm86 °FSunny.8 mph31%29.85 "Hg10 mi
8:15 pm86 °FSunny.9 mph29%29.84 "Hg10 mi
6:50 pm90 °FScattered clouds.14 mph26%29.82 "Hg40 mi
5:47 pm90 °FScattered clouds.12 mph29%29.83 "Hg40 mi
4:47 pm90 °FScattered clouds.8 mph29%29.83 "Hg40 mi
Weather by CustomWeather, © 2021

See weather overview